Time;durP1;ratioP1;P1;durP2;ratioP2;P2;SDS_P1;SDS_P2;PMS_P1;PMS_P2;Temp;Humidity;BMP_temperature;BMP_pressure;BME280_temperature;BME280_humidity;BME280_pressure;Samples;Min_cycle;Max_cycle;Signal;HPM_P1;HPM_P2
2021/09/13 00:01:02;;;;;;;0.20;0.20;;;;;;;14.10;96.40;99199.25;5091584;28;20106;-72
2021/09/13 00:03:27;;;;;;;0.20;0.20;;;;;;;14.07;96.61;99211.31;5109637;28;20103;-70
2021/09/13 00:05:54;;;;;;;0.20;0.20;;;;;;;14.06;96.69;99203.38;5109160;28;20073;-73
2021/09/13 00:08:20;;;;;;;0.10;0.10;;;;;;;14.03;96.77;99204.56;5090924;28;20146;-71
2021/09/13 00:10:46;;;;;;;0.20;0.20;;;;;;;14.04;96.73;99206.28;5113047;28;20051;-71
2021/09/13 00:13:14;;;;;;;0.20;0.20;;;;;;;13.99;97.07;99198.66;5095327;28;20052;-71
2021/09/13 00:15:40;;;;;;;0.20;0.20;;;;;;;14.00;96.96;99204.94;5065059;28;20135;-70
2021/09/13 00:18:07;;;;;;;0.20;0.20;;;;;;;14.02;97.03;99197.44;5074328;28;20051;-71
2021/09/13 00:20:33;;;;;;;0.20;0.20;;;;;;;14.02;97.18;99205.59;5091999;28;20067;-72
2021/09/13 00:22:59;;;;;;;0.20;0.20;;;;;;;14.04;97.16;99200.84;5092394;28;20055;-70
2021/09/13 00:25:24;;;;;;;0.20;0.20;;;;;;;14.02;97.11;99205.59;5092979;28;20059;-72
2021/09/13 00:27:53;;;;;;;0.20;0.20;;;;;;;14.02;97.14;99194.72;5074000;28;20044;-71
2021/09/13 00:30:18;;;;;;;0.20;0.20;;;;;;;13.98;97.43;99201.56;5092509;28;20506;-70
2021/09/13 00:32:46;;;;;;;0.20;0.20;;;;;;;13.96;97.40;99195.47;5073808;28;20056;-72
2021/09/13 00:35:25;;;;;;;0.20;0.20;;;;;;;13.92;97.47;99194.13;5075692;28;20055;-71
2021/09/13 00:37:52;;;;;;;0.20;0.20;;;;;;;13.92;97.86;99196.84;5092385;28;20044;-70
2021/09/13 00:40:18;;;;;;;0.20;0.20;;;;;;;13.87;97.79;99185.72;5073773;28;20101;-71
2021/09/13 00:42:44;;;;;;;0.20;0.20;;;;;;;13.88;97.97;99190.09;5092140;28;20043;-71
2021/09/13 00:45:11;;;;;;;0.20;0.20;;;;;;;13.86;98.10;99192.19;5073781;28;20056;-72
2021/09/13 00:47:37;;;;;;;0.20;0.20;;;;;;;13.83;98.02;99187.94;5073947;28;20546;-70
2021/09/13 00:50:04;;;;;;;0.20;0.20;;;;;;;13.83;98.33;99192.53;5073579;28;20060;-70
2021/09/13 00:52:30;;;;;;;0.20;0.20;;;;;;;13.82;98.24;99185.41;5074017;28;20050;-71
2021/09/13 00:54:55;;;;;;;0.20;0.20;;;;;;;13.83;98.45;99181.69;5057000;28;20103;-73
2021/09/13 00:57:21;;;;;;;0.10;0.10;;;;;;;13.83;98.27;99176.25;5073502;28;20517;-72
2021/09/13 00:59:47;;;;;;;0.20;0.20;;;;;;;13.81;98.33;99179.13;5073251;28;20079;-72
2021/09/13 01:02:13;;;;;;;0.20;0.20;;;;;;;13.79;98.27;99185.78;5073587;28;20067;-71
2021/09/13 01:04:39;;;;;;;0.20;0.20;;;;;;;13.75;98.37;99174.44;5073738;28;20132;-70
2021/09/13 01:07:05;;;;;;;0.20;0.20;;;;;;;13.74;98.12;99168.13;5056759;28;20047;-69
2021/09/13 01:09:33;;;;;;;0.20;0.20;;;;;;;13.73;98.39;99171.06;5048704;28;20166;-70
2021/09/13 01:11:59;;;;;;;0.20;0.20;;;;;;;13.70;98.48;99172.25;5070936;28;20045;-71
2021/09/13 01:14:34;;;;;;;0.20;0.20;;;;;;;13.70;98.54;99172.25;5056435;28;20806;-70
2021/09/13 01:17:00;;;;;;;0.20;0.20;;;;;;;13.67;98.64;99167.19;5056231;28;20059;-69
2021/09/13 01:19:25;;;;;;;0.20;0.20;;;;;;;13.61;99.03;99167.09;5091255;28;20102;-72
2021/09/13 01:21:52;;;;;;;0.20;0.20;;;;;;;13.55;99.05;99168.66;5072697;28;20444;-69
2021/09/13 01:24:17;;;;;;;0.20;0.20;;;;;;;13.52;99.37;99166.31;5056552;28;20056;-69
2021/09/13 01:26:44;;;;;;;0.20;0.20;;;;;;;13.50;99.53;99165.66;5073075;28;20128;-70
2021/09/13 01:29:10;;;;;;;0.20;0.20;;;;;;;13.48;99.86;99170.41;5056791;28;20059;-72
2021/09/13 01:31:36;;;;;;;0.20;0.20;;;;;;;13.45;99.85;99168.06;5073343;28;20047;-71
2021/09/13 01:34:02;;;;;;;0.20;0.20;;;;;;;13.43;100.00;99159.25;5072579;28;20063;-71
2021/09/13 01:36:30;;;;;;;0.20;0.20;;;;;;;13.40;100.00;99173.19;5072582;28;20527;-72
2021/09/13 01:39:01;;;;;;;0.20;0.20;;;;;;;13.40;100.00;99165.06;5055599;28;20495;-71
2021/09/13 01:41:28;;;;;;;0.20;0.20;;;;;;;13.39;100.00;99163.38;5072651;28;20064;-70
2021/09/13 01:43:58;;;;;;;0.20;0.20;;;;;;;13.38;100.00;99156.22;5072306;28;20075;-71
2021/09/13 01:46:25;;;;;;;0.20;0.20;;;;;;;13.35;100.00;99152.03;5072634;28;20047;-71
2021/09/13 01:48:51;;;;;;;0.20;0.20;;;;;;;13.36;100.00;99152.88;5072670;28;20059;-70
2021/09/13 01:51:17;;;;;;;0.20;0.20;;;;;;;13.39;100.00;99157.94;5072639;28;20088;-70
2021/09/13 01:53:44;;;;;;;0.20;0.20;;;;;;;13.39;100.00;99152.50;5038865;28;20127;-71
2021/09/13 01:56:10;;;;;;;0.20;0.20;;;;;;;13.37;100.00;99143.69;5055729;28;20056;-71
2021/09/13 01:58:36;;;;;;;0.20;0.20;;;;;;;13.40;100.00;99138.72;5072004;28;20059;-71
2021/09/13 02:01:02;;;;;;;0.20;0.20;;;;;;;13.44;100.00;99144.66;5071999;28;20524;-71
2021/09/13 02:03:34;;;;;;;0.20;0.20;;;;;;;13.45;100.00;99135.47;5056256;28;20143;-69
2021/09/13 02:06:01;;;;;;;0.20;0.20;;;;;;;13.46;100.00;99132.59;5072111;28;20052;-70
2021/09/13 02:08:28;;;;;;;0.20;0.20;;;;;;;13.48;100.00;99135.94;5055456;28;20044;-71
2021/09/13 02:10:58;;;;;;;0.20;0.20;;;;;;;13.49;100.00;99126.78;5055485;28;20048;-72
2021/09/13 02:13:23;;;;;;;0.20;0.20;;;;;;;13.50;100.00;99124.91;5052298;28;20052;-70
2021/09/13 02:15:51;;;;;;;0.20;0.20;;;;;;;13.51;100.00;99122.00;5067332;28;20530;-69
2021/09/13 02:18:20;;;;;;;0.20;0.20;;;;;;;13.49;99.93;99120.50;5055089;28;20059;-73
2021/09/13 02:20:53;;;;;;;0.20;0.20;;;;;;;13.51;100.00;99123.88;5071707;28;20100;-70
2021/09/13 02:23:19;;;;;;;0.20;0.20;;;;;;;13.45;100.00;99114.59;5072034;28;20051;-70
2021/09/13 02:25:45;;;;;;;0.20;0.20;;;;;;;13.43;100.00;99113.09;5071953;28;20055;-71
2021/09/13 02:28:12;;;;;;;0.20;0.20;;;;;;;13.38;100.00;99112.78;5071654;28;20056;-69
2021/09/13 02:30:37;;;;;;;0.20;0.20;;;;;;;13.33;100.00;99109.78;5071444;28;20059;-71
2021/09/13 02:33:05;;;;;;;0.20;0.20;;;;;;;13.30;100.00;99115.56;5071005;28;20052;-71
2021/09/13 02:35:31;;;;;;;0.20;0.20;;;;;;;13.24;100.00;99123.44;5055082;28;20056;-69
2021/09/13 02:37:58;;;;;;;0.20;0.20;;;;;;;13.18;100.00;99124.13;5071539;28;20062;-70
2021/09/13 02:40:24;;;;;;;0.20;0.20;;;;;;;13.16;100.00;99126.19;5071708;28;20508;-69
2021/09/13 02:42:50;;;;;;;0.20;0.20;;;;;;;13.15;100.00;99115.47;5054730;28;20052;-72
2021/09/13 02:45:16;;;;;;;0.20;0.20;;;;;;;13.14;100.00;99117.34;5071875;28;20153;-72
2021/09/13 02:47:43;;;;;;;0.20;0.20;;;;;;;13.14;100.00;99111.94;5055251;28;20557;-70
2021/09/13 02:50:12;;;;;;;0.20;0.20;;;;;;;13.17;100.00;99119.72;5072844;28;20052;-74
2021/09/13 02:52:38;;;;;;;0.20;0.20;;;;;;;13.20;100.00;99111.22;5091263;28;20129;-70
2021/09/13 02:55:06;;;;;;;0.20;0.20;;;;;;;13.19;100.00;99111.38;5056008;28;20056;-71
2021/09/13 02:57:32;;;;;;;0.20;0.20;;;;;;;13.16;100.00;99101.75;5073089;28;20071;-72
2021/09/13 02:59:58;;;;;;;0.20;0.20;;;;;;;13.22;100.00;99092.88;5072090;28;20091;-71
2021/09/13 03:02:24;;;;;;;0.20;0.20;;;;;;;13.27;100.00;99090.50;5055102;28;20059;-70
2021/09/13 03:04:50;;;;;;;0.20;0.20;;;;;;;13.28;100.00;99096.75;5071447;28;20059;-74
2021/09/13 03:07:17;;;;;;;0.20;0.20;;;;;;;13.31;100.00;99098.25;5054899;28;20077;-71
2021/09/13 03:09:43;;;;;;;0.20;0.20;;;;;;;13.33;100.00;99091.63;5071272;28;20048;-70
2021/09/13 03:12:10;;;;;;;0.20;0.20;;;;;;;13.31;100.00;99095.53;5054763;28;20101;-72
2021/09/13 03:14:46;;;;;;;0.20;0.20;;;;;;;13.33;100.00;99097.06;5055572;28;20091;-72
2021/09/13 03:17:19;;;;;;;0.20;0.20;;;;;;;13.34;100.00;99092.47;5055709;28;20105;-69
2021/09/13 03:19:45;;;;;;;0.20;0.20;;;;;;;13.32;100.00;99091.81;5054639;28;20147;-72
2021/09/13 03:22:11;;;;;;;0.20;0.20;;;;;;;13.27;100.00;99085.06;5054336;28;20084;-70
2021/09/13 03:24:36;;;;;;;0.20;0.20;;;;;;;13.31;100.00;99082.84;5070917;28;20138;-69
2021/09/13 03:27:03;;;;;;;0.20;0.20;;;;;;;13.35;100.00;99083.31;5054442;28;20052;-70
2021/09/13 03:29:32;;;;;;;0.20;0.20;;;;;;;13.34;99.76;99081.59;5071127;28;20048;-71
2021/09/13 03:31:57;;;;;;;0.20;0.20;;;;;;;13.34;99.70;99090.59;5105905;28;20078;-71
2021/09/13 03:34:24;;;;;;;0.20;0.20;;;;;;;13.31;99.71;99090.09;5091752;28;20062;-71
2021/09/13 03:36:54;;;;;;;0.20;0.20;;;;;;;13.30;99.61;99093.84;5074973;28;20055;-71
2021/09/13 03:39:20;;;;;;;0.20;0.20;;;;;;;13.34;99.67;99095.19;5074540;28;20083;-69
2021/09/13 03:41:46;;;;;;;0.20;0.20;;;;;;;13.31;99.64;99096.41;5090378;28;20052;-72
2021/09/13 03:44:12;;;;;;;0.30;0.30;;;;;;;13.27;99.81;99086.91;5093926;28;20379;-72
2021/09/13 03:46:38;;;;;;;0.20;0.20;;;;;;;13.35;99.91;99091.47;5095304;28;20051;-73
2021/09/13 03:49:21;;;;;;;;;;;;;;;13.32;99.61;99089.09;5081209;28;20231;-74
2021/09/13 03:51:49;;;;;;;0.20;0.20;;;;;;;13.34;99.43;99079.72;5078771;28;19919;-72
2021/09/13 03:54:14;;;;;;;0.20;0.20;;;;;;;13.36;99.50;99082.28;5078422;28;20097;-72
2021/09/13 03:56:45;;;;;;;0.20;0.20;;;;;;;13.38;99.13;99085.63;5062180;28;20414;-65
2021/09/13 03:59:15;;;;;;;0.20;0.20;;;;;;;13.40;98.90;99086.31;5073256;28;20083;-69
2021/09/13 04:01:40;;;;;;;0.20;0.20;;;;;;;13.41;98.74;99093.41;5084672;28;20087;-68
2021/09/13 04:04:07;;;;;;;0.20;0.20;;;;;;;13.38;98.84;99085.63;5074197;28;20048;-68
2021/09/13 04:12:20;;;;;;;0.20;0.20;;;;;;;13.36;98.83;99076.84;5067584;28;20040;-71
2021/09/13 04:15:09;;;;;;;0.20;0.20;;;;;;;13.41;98.65;99079.84;5067832;28;20071;-67
2021/09/13 04:18:04;;;;;;;0.20;0.20;;;;;;;13.50;98.61;99086.91;5076480;28;20071;-70
2021/09/13 04:20:48;;;;;;;0.20;0.20;;;;;;;13.50;98.56;99084.19;5071430;28;20097;-67
2021/09/13 04:23:32;;;;;;;0.20;0.20;;;;;;;13.63;97.76;99087.09;5066287;28;20052;-66
2021/09/13 04:26:17;;;;;;;0.20;0.20;;;;;;;13.62;97.49;99082.69;5070906;28;20048;-67
2021/09/13 04:29:01;;;;;;;0.30;0.30;;;;;;;13.64;97.48;99088.81;5077152;28;20135;-67
2021/09/13 04:31:59;;;;;;;0.30;0.30;;;;;;;13.71;97.32;99086.16;5034238;28;20071;-67
2021/09/13 04:34:36;;;;;;;0.20;0.20;;;;;;;13.73;96.70;99074.09;5070094;28;20070;-67
2021/09/13 04:37:25;;;;;;;0.20;0.20;;;;;;;13.92;96.02;99071.84;5078440;28;20078;-68
2021/09/13 04:40:17;;;;;;;0.30;0.30;;;;;;;14.02;95.36;99067.00;5079970;28;20062;-68
2021/09/13 04:43:05;;;;;;;0.30;0.30;;;;;;;14.12;94.90;99064.00;5036174;28;20495;-68
2021/09/13 04:46:03;;;;;;;0.30;0.30;;;;;;;14.24;94.42;99082.34;5038614;28;20063;-67
2021/09/13 04:48:52;;;;;;;0.30;0.30;;;;;;;14.35;93.61;99077.47;5056251;28;20449;-66
2021/09/13 04:51:37;;;;;;;0.30;0.30;;;;;;;14.45;93.12;99067.16;5078305;28;20053;-70
2021/09/13 04:54:09;;;;;;;0.20;0.20;;;;;;;14.54;92.69;99074.19;5049031;28;20567;-67
2021/09/13 04:56:36;;;;;;;0.30;0.30;;;;;;;14.64;91.99;99074.72;5046539;28;20051;-67
2021/09/13 04:59:03;;;;;;;0.30;0.30;;;;;;;14.71;91.52;99072.09;5073770;28;20057;-65
2021/09/13 05:01:30;;;;;;;0.20;0.20;;;;;;;14.84;91.08;99071.38;5065130;28;20063;-67
2021/09/13 05:03:56;;;;;;;0.30;0.30;;;;;;;14.95;90.18;99062.69;5059708;28;20105;-66
2021/09/13 05:06:22;;;;;;;0.30;0.30;;;;;;;15.08;89.75;99062.84;5057146;28;20412;-66
2021/09/13 05:08:50;;;;;;;0.30;0.30;;;;;;;15.27;88.68;99055.03;5039968;28;20036;-67
2021/09/13 05:11:19;;;;;;;0.30;0.30;;;;;;;15.41;88.00;99052.22;5064953;28;20060;-68
2021/09/13 05:13:46;;;;;;;0.30;0.30;;;;;;;15.54;87.69;99058.81;5075844;28;20106;-66
2021/09/13 05:16:12;;;;;;;0.20;0.20;;;;;;;15.65;87.75;99048.28;5072883;28;20044;-69
2021/09/13 05:18:40;;;;;;;0.30;0.30;;;;;;;15.81;86.80;99049.00;5040154;28;20371;-66
2021/09/13 05:21:06;;;;;;;0.20;0.20;;;;;;;15.86;86.81;99049.22;5057586;28;20055;-67
2021/09/13 05:23:33;;;;;;;0.30;0.30;;;;;;;15.95;86.11;99037.13;5037743;28;20048;-73
2021/09/13 05:25:59;;;;;;;0.30;0.30;;;;;;;16.04;84.61;99041.38;5021530;28;20205;-66
2021/09/13 05:28:25;;;;;;;0.30;0.30;;;;;;;16.13;84.83;99040.16;5067205;28;20182;-68
2021/09/13 05:30:52;;;;;;;0.20;0.20;;;;;;;16.14;84.54;99041.84;5058657;28;20052;-68
2021/09/13 05:33:19;;;;;;;0.30;0.30;;;;;;;16.17;85.20;99042.50;5097376;28;20556;-69
2021/09/13 05:35:45;;;;;;;0.20;0.20;;;;;;;16.11;84.44;99033.22;5091290;28;20054;-69
2021/09/13 05:38:14;;;;;;;0.20;0.20;;;;;;;16.09;84.54;99044.34;5078297;28;20091;-69
2021/09/13 05:40:41;;;;;;;0.20;0.20;;;;;;;16.09;83.29;99048.97;5054679;28;20052;-66
2021/09/13 05:43:09;;;;;;;0.10;0.10;;;;;;;16.05;82.95;99036.75;5056464;28;20062;-65
2021/09/13 05:45:36;;;;;;;0.20;0.20;;;;;;;16.06;82.69;99042.03;5062706;28;20060;-69
2021/09/13 05:48:04;;;;;;;0.20;0.20;;;;;;;16.07;82.28;99035.50;5070638;28;20195;-67
2021/09/13 05:50:37;;;;;;;0.20;0.20;;;;;;;15.97;82.01;99029.59;5060284;28;20427;-66
2021/09/13 05:53:03;;;;;;;0.20;0.20;;;;;;;15.96;82.02;99033.34;5089656;28;20087;-69
2021/09/13 05:55:29;;;;;;;0.20;0.20;;;;;;;16.04;82.47;99024.16;5049626;28;20052;-66
2021/09/13 05:57:56;;;;;;;0.20;0.20;;;;;;;16.15;81.56;99029.88;5072749;28;20071;-69
2021/09/13 06:00:23;;;;;;;0.30;0.30;;;;;;;16.35;80.88;99029.16;5072860;28;20116;-66
2021/09/13 06:02:54;;;;;;;0.30;0.30;;;;;;;16.54;80.13;99025.63;5056957;28;20550;-66
2021/09/13 06:05:32;;;;;;;0.20;0.20;;;;;;;16.66;79.31;99025.03;5072868;28;20056;-66
2021/09/13 06:08:00;;;;;;;0.20;0.20;;;;;;;16.71;79.13;99030.72;5078944;28;20055;-67
2021/09/13 06:10:27;;;;;;;0.30;0.30;;;;;;;16.88;78.75;99034.78;5069767;28;20131;-66
2021/09/13 06:12:53;;;;;;;0.20;0.20;;;;;;;16.99;77.87;99033.34;5088383;28;20146;-67
2021/09/13 06:15:19;;;;;;;0.20;0.20;;;;;;;17.09;77.72;99023.69;5059493;28;20108;-68
2021/09/13 06:17:46;;;;;;;0.30;0.30;;;;;;;17.11;77.15;99021.59;5071606;28;20063;-69
2021/09/13 06:20:15;;;;;;;0.30;0.30;;;;;;;17.32;76.55;99014.22;5057483;28;20059;-67
2021/09/13 06:22:42;;;;;;;0.30;0.30;;;;;;;17.62;74.97;99011.06;5046292;28;20475;-68
2021/09/13 06:25:13;;;;;;;0.90;0.90;;;;;;;18.61;71.52;99021.72;5056252;28;20117;-68
2021/09/13 06:27:42;;;;;;;0.90;0.90;;;;;;;20.06;65.78;99018.03;5079993;28;20051;-69
2021/09/13 06:30:09;;;;;;;1.00;1.00;;;;;;;21.27;62.21;99019.78;5054919;28;20111;-68
2021/09/13 06:32:35;;;;;;;0.30;0.30;;;;;;;21.64;59.94;99011.38;5055713;28;20055;-68
2021/09/13 06:35:02;;;;;;;0.30;0.30;;;;;;;20.77;61.95;99017.41;5022033;28;20066;-68
2021/09/13 06:37:46;;;;;;;0.28;0.28;;;;;;;20.13;63.70;99018.81;5087686;28;20097;-69
2021/09/13 06:40:12;;;;;;;0.20;0.20;;;;;;;19.96;64.79;99013.94;5057242;28;20054;-69
2021/09/13 06:42:38;;;;;;;0.20;0.20;;;;;;;19.86;65.01;99013.63;5055696;28;20161;-68
2021/09/13 06:45:12;;;;;;;0.20;0.20;;;;;;;19.87;64.95;99020.78;5068786;28;20193;-68
2021/09/13 06:47:44;;;;;;;0.20;0.20;;;;;;;19.61;65.84;99016.38;5070770;28;20482;-69
2021/09/13 06:50:21;;;;;;;0.20;0.20;;;;;;;19.58;66.21;99015.97;5065423;28;20521;-70
2021/09/13 06:52:50;;;;;;;0.20;0.20;;;;;;;19.61;66.76;99010.88;5071558;28;20141;-68
2021/09/13 06:55:15;;;;;;;0.10;0.10;;;;;;;19.40;67.00;99020.34;5075177;28;20177;-68
2021/09/13 06:57:41;;;;;;;0.20;0.20;;;;;;;19.19;68.55;99017.97;5058087;28;20067;-69
2021/09/13 07:00:13;;;;;;;0.10;0.10;;;;;;;18.98;69.14;99022.78;5071978;28;20087;-68
2021/09/13 07:02:40;;;;;;;0.20;0.20;;;;;;;18.93;69.66;99025.31;5078688;28;20562;-69
2021/09/13 07:05:07;;;;;;;0.20;0.20;;;;;;;18.85;69.26;99016.53;5055857;28;20049;-67
2021/09/13 07:07:33;;;;;;;0.20;0.20;;;;;;;18.92;69.41;99012.69;5089984;28;20063;-72
2021/09/13 07:09:59;;;;;;;0.20;0.20;;;;;;;18.86;69.07;99013.56;5086729;28;20169;-70
2021/09/13 07:12:25;;;;;;;0.20;0.20;;;;;;;18.98;69.08;99017.31;5090762;28;20514;-69
2021/09/13 07:14:54;;;;;;;0.20;0.20;;;;;;;19.04;69.11;99016.41;5060180;28;20151;-68
2021/09/13 07:17:20;;;;;;;0.20;0.20;;;;;;;19.02;70.30;99004.84;5053818;28;20392;-70
2021/09/13 07:19:47;;;;;;;0.20;0.20;;;;;;;19.05;70.66;99009.03;5065821;28;20052;-68
2021/09/13 07:22:13;;;;;;;0.20;0.20;;;;;;;19.13;70.29;99007.94;5075931;28;20156;-69
2021/09/13 07:24:43;;;;;;;0.20;0.20;;;;;;;19.31;70.46;99008.00;5086006;28;20055;-69
2021/09/13 07:27:10;;;;;;;0.25;0.25;;;;;;;19.55;69.33;98999.97;5043186;28;20139;-69
2021/09/13 07:29:37;;;;;;;0.30;0.30;;;;;;;19.77;67.81;98998.50;5084830;28;20056;-71
2021/09/13 07:32:03;;;;;;;0.30;0.30;;;;;;;20.41;65.78;98996.31;5082657;28;20505;-70
2021/09/13 07:34:29;;;;;;;0.28;0.28;;;;;;;20.46;64.69;98994.53;5026897;28;20047;-70
2021/09/13 07:36:56;;;;;;;0.30;0.30;;;;;;;20.68;64.37;98988.56;5051394;28;20493;-69
2021/09/13 07:39:26;;;;;;;0.30;0.30;;;;;;;21.83;60.74;98995.56;5105059;28;20147;-70
2021/09/13 07:41:52;;;;;;;0.20;0.20;;;;;;;22.09;60.07;98988.75;5080807;28;20114;-68
2021/09/13 07:44:18;;;;;;;0.30;0.30;;;;;;;22.05;59.54;98987.56;5077796;28;20586;-67
2021/09/13 07:46:44;;;;;;;1.10;1.10;;;;;;;23.58;55.20;98980.25;5067173;28;20105;-68
2021/09/13 07:49:10;;;;;;;0.90;0.90;;;;;;;24.10;53.88;98970.81;5067838;28;20511;-69
2021/09/13 07:51:36;;;;;;;0.90;0.90;;;;;;;25.21;50.39;98975.09;5040603;28;20048;-70
2021/09/13 07:54:02;;;;;;;0.90;0.90;;;;;;;25.06;50.53;98978.53;5090469;28;20044;-69
2021/09/13 07:56:28;;;;;;;0.90;0.90;;;;;;;26.47;48.30;98970.66;5060116;28;20055;-67
2021/09/13 07:58:54;;;;;;;0.90;0.90;;;;;;;26.01;47.63;98956.59;5050851;28;20411;-68
2021/09/13 08:01:20;;;;;;;0.90;0.90;;;;;;;26.63;45.61;98969.59;5058539;28;20059;-71
2021/09/13 08:03:46;;;;;;;0.90;0.90;;;;;;;26.91;44.43;98968.28;5061892;28;20043;-69
2021/09/13 08:06:12;;;;;;;0.80;0.80;;;;;;;26.63;43.56;98964.06;5076643;28;20135;-69
2021/09/13 08:08:38;;;;;;;0.93;0.93;;;;;;;26.29;43.94;98962.78;5063000;28;20496;-69
2021/09/13 08:11:04;;;;;;;0.82;0.82;;;;;;;27.05;42.60;98957.47;5093716;28;20488;-70
2021/09/13 08:13:31;;;;;;;0.90;0.90;;;;;;;27.37;41.16;98956.41;5096416;28;20083;-69
2021/09/13 08:15:57;;;;;;;0.90;0.90;;;;;;;27.99;39.93;98957.16;5067253;28;20487;-69
2021/09/13 08:18:24;;;;;;;0.90;0.90;;;;;;;28.11;39.82;98947.38;5078268;28;20463;-69
2021/09/13 08:20:50;;;;;;;0.90;0.90;;;;;;;28.70;38.62;98948.50;5076445;28;20131;-71
2021/09/13 08:23:16;;;;;;;1.00;1.00;;;;;;;28.93;37.90;98943.38;5075571;28;20043;-69
2021/09/13 08:25:44;;;;;;;0.90;0.90;;;;;;;28.06;39.66;98935.47;5060267;28;20047;-68
2021/09/13 08:28:20;;;;;;;0.90;0.90;;;;;;;28.17;39.15;98937.06;5091765;28;20059;-70
2021/09/13 08:30:47;;;;;;;0.90;0.90;;;;;;;29.18;37.24;98939.56;5057336;28;20483;-71
2021/09/13 08:33:13;;;;;;;0.90;0.90;;;;;;;30.62;34.87;98934.97;5099911;28;20085;-69
2021/09/13 08:35:39;;;;;;;0.90;0.90;;;;;;;31.60;33.05;98939.88;5048585;28;20456;-68
2021/09/13 08:38:04;;;;;;;0.85;0.85;;;;;;;32.48;31.85;98931.47;5074117;28;20119;-68
2021/09/13 08:40:30;;;;;;;0.90;0.90;;;;;;;33.34;30.27;98929.41;5043710;28;20476;-71
2021/09/13 08:42:57;;;;;;;0.80;0.80;;;;;;;33.82;29.55;98923.13;5041162;28;20522;-70
2021/09/13 08:45:30;;;;;;;0.80;0.80;;;;;;;33.54;30.34;98927.25;5062995;28;20062;-69
2021/09/13 08:53:04;;;;;;;0.88;0.88;;;;;;;33.22;27.78;98915.16;5057766;28;20048;-69
2021/09/13 08:55:30;;;;;;;0.80;0.80;;;;;;;33.50;27.58;98909.44;5090704;28;20114;-67
2021/09/13 08:57:58;;;;;;;0.90;0.90;;;;;;;33.91;27.46;98908.31;5092709;28;20063;-72
2021/09/13 09:00:24;;;;;;;0.90;0.90;;;;;;;33.72;26.47;98900.16;5082452;28;20147;-69
2021/09/13 09:02:53;;;;;;;0.80;0.80;;;;;;;31.30;29.34;98908.53;5074076;28;20063;-72
2021/09/13 09:05:19;;;;;;;0.80;0.80;;;;;;;31.65;29.63;98895.88;5076603;28;20047;-69
2021/09/13 09:07:52;;;;;;;0.82;0.82;;;;;;;29.89;31.81;98897.13;5039171;28;20080;-70
2021/09/13 09:10:23;;;;;;;0.10;0.10;;;;;;;29.11;33.80;98883.41;5073702;28;20079;-69
2021/09/13 09:13:08;;;;;;;0.90;0.90;;;;;;;31.31;30.92;98899.03;5041693;28;20056;-69
2021/09/13 09:15:36;;;;;;;1.00;1.00;;;;;;;32.35;29.25;98891.94;5071459;28;20067;-71
2021/09/13 09:18:05;;;;;;;0.80;0.80;;;;;;;33.40;27.73;98888.06;5042812;28;20391;-71
2021/09/13 09:20:41;;;;;;;0.85;0.85;;;;;;;31.69;28.76;98879.31;5090136;28;20051;-70
2021/09/13 09:23:07;;;;;;;0.73;0.73;;;;;;;31.78;29.74;98874.69;5067747;28;20048;-69
2021/09/13 09:25:36;;;;;;;0.80;0.80;;;;;;;33.35;27.26;98869.44;5057258;28;20079;-70
2021/09/13 09:28:05;;;;;;;0.40;0.40;;;;;;;32.68;27.30;98872.19;5091238;28;20117;-71
2021/09/13 09:30:44;;;;;;;0.85;0.85;;;;;;;31.64;29.32;98865.44;5089400;28;20134;-70
2021/09/13 09:33:15;;;;;;;0.80;0.80;;;;;;;30.50;31.05;98867.63;5091085;28;20063;-71
2021/09/13 09:35:51;;;;;;;0.10;0.10;;;;;;;28.05;35.27;98872.66;5061365;28;20210;-70
2021/09/13 09:38:27;;;;;;;0.90;0.90;;;;;;;28.70;34.37;98872.56;5089373;28;20154;-69
2021/09/13 09:41:05;;;;;;;0.55;0.55;;;;;;;29.42;33.06;98859.72;5091500;28;20048;-69
2021/09/13 09:43:47;;;;;;;0.10;0.10;;;;;;;26.33;36.32;98858.63;5070893;28;20044;-72
2021/09/13 09:46:14;;;;;;;0.10;0.10;;;;;;;25.97;36.78;98850.19;5059200;28;20052;-69
2021/09/13 09:48:40;;;;;;;0.90;0.90;;;;;;;26.51;35.93;98860.91;5076994;28;20047;-70
2021/09/13 09:51:32;;;;;;;0.65;0.65;;;;;;;26.23;36.18;98850.28;5075668;28;20055;-70
2021/09/13 09:54:08;;;;;;;0.70;0.70;;;;;;;28.76;32.41;98851.94;5048336;28;20043;-69
2021/09/13 09:56:34;;;;;;;0.90;0.90;;;;;;;29.81;30.25;98858.75;5086333;28;20054;-72
2021/09/13 09:59:05;;;;;;;0.70;0.70;;;;;;;29.51;31.30;98849.59;5071025;28;20047;-69
2021/09/13 10:01:32;;;;;;;0.80;0.80;;;;;;;28.72;31.68;98853.66;5078700;28;20082;-69
2021/09/13 10:04:14;;;;;;;0.75;0.75;;;;;;;29.36;30.64;98860.88;5060164;28;20058;-69
2021/09/13 10:06:42;;;;;;;;;;;;;;;31.19;28.15;98853.94;5094641;28;20059;-72
2021/09/13 10:09:09;;;;;;;0.70;0.70;;;;;;;29.70;29.58;98834.94;5068852;28;19926;-69
2021/09/13 10:11:40;;;;;;;0.65;0.65;;;;;;;29.21;30.63;98850.72;5075686;28;20197;-69
2021/09/13 10:14:08;;;;;;;0.70;0.70;;;;;;;29.45;29.70;98850.78;5100002;28;20051;-69
2021/09/13 10:16:36;;;;;;;0.70;0.70;;;;;;;29.75;29.13;98843.22;5093559;28;20437;-70
2021/09/13 10:19:02;;;;;;;0.70;0.70;;;;;;;30.71;27.88;98848.59;5086230;28;20142;-74
2021/09/13 10:21:28;;;;;;;0.70;0.70;;;;;;;29.81;28.59;98825.31;5075252;28;20143;-69
2021/09/13 10:23:54;;;;;;;0.60;0.60;;;;;;;30.65;27.10;98838.66;5082828;28;20048;-70
2021/09/13 10:26:20;;;;;;;0.17;0.17;;;;;;;28.65;30.58;98831.72;5057230;28;20052;-69
2021/09/13 10:29:16;;;;;;;0.70;0.70;;;;;;;28.92;29.83;98835.94;5099823;28;20051;-74
2021/09/13 10:31:42;;;;;;;0.60;0.60;;;;;;;29.16;29.67;98836.03;5076532;28;20090;-73
2021/09/13 10:34:18;;;;;;;0.20;0.20;;;;;;;28.91;29.60;98828.72;5090032;28;20048;-70
2021/09/13 10:37:16;;;;;;;0.70;0.70;;;;;;;30.40;27.59;98825.94;5091505;28;20521;-70
2021/09/13 10:40:08;;;;;;;0.30;0.30;;;;;;;29.92;28.21;98814.88;5060140;28;20056;-70
2021/09/13 10:42:46;;;;;;;0.40;0.40;;;;;;;29.00;30.07;98807.53;5041708;28;20514;-70
2021/09/13 10:45:17;;;;;;;0.70;0.70;;;;;;;30.06;29.08;98815.78;5065323;28;20556;-69
2021/09/13 10:47:52;;;;;;;0.20;0.20;;;;;;;29.96;28.52;98805.59;5090535;28;20047;-69
2021/09/13 10:50:18;;;;;;;0.43;0.43;;;;;;;29.75;28.91;98805.03;5090115;28;20060;-69
2021/09/13 10:52:45;;;;;;;0.10;0.10;;;;;;;27.95;31.55;98795.72;5067456;28;20144;-68
2021/09/13 10:55:16;;;;;;;0.75;0.75;;;;;;;28.09;31.34;98807.88;5107597;28;20048;-69
2021/09/13 10:57:51;;;;;;;0.10;0.10;;;;;;;27.08;33.52;98801.53;5102215;28;20506;-69
2021/09/13 11:00:39;;;;;;;0.10;0.10;;;;;;;27.65;33.23;98796.69;5071920;28;20060;-70
2021/09/13 11:03:31;;;;;;;0.10;0.10;;;;;;;27.49;33.81;98798.66;5063941;28;20051;-67
2021/09/13 11:06:05;;;;;;;0.40;0.40;;;;;;;27.29;34.00;98795.97;5054932;28;20534;-70
2021/09/13 11:08:48;;;;;;;0.70;0.70;;;;;;;28.19;32.60;98784.72;5100379;28;20056;-69
2021/09/13 11:11:28;;;;;;;0.70;0.70;;;;;;;29.94;29.99;98784.72;5070321;28;20047;-70
2021/09/13 11:14:07;;;;;;;0.60;0.60;;;;;;;31.11;29.59;98790.44;5082080;28;20094;-69
2021/09/13 11:16:35;;;;;;;0.50;0.50;;;;;;;31.03;28.73;98793.94;5053063;28;20125;-70
2021/09/13 11:19:10;;;;;;;0.30;0.30;;;;;;;29.98;30.42;98792.22;5071940;28;20616;-69
2021/09/13 11:21:50;;;;;;;0.30;0.30;;;;;;;30.57;30.12;98805.84;5050132;28;20097;-71
2021/09/13 11:24:39;;;;;;;0.20;0.20;;;;;;;28.84;32.15;98798.44;5105624;28;20082;-69
2021/09/13 11:27:15;;;;;;;0.20;0.20;;;;;;;28.63;32.60;98785.84;5060743;28;20062;-68
2021/09/13 11:29:43;;;;;;;0.10;0.10;;;;;;;28.41;33.00;98792.69;5064100;28;20213;-71
2021/09/13 11:32:11;;;;;;;0.20;0.20;;;;;;;27.49;34.33;98790.34;5091173;28;20384;-70
2021/09/13 11:34:39;;;;;;;0.50;0.50;;;;;;;29.41;31.55;98785.66;5062588;28;20055;-69
2021/09/13 11:37:23;;;;;;;0.20;0.20;;;;;;;29.03;32.80;98788.28;5093249;28;20075;-71
2021/09/13 11:39:54;;;;;;;0.10;0.10;;;;;;;27.65;34.05;98780.03;5065962;28;20067;-69
2021/09/13 11:42:25;;;;;;;0.10;0.10;;;;;;;26.13;36.60;98777.09;5062149;28;20115;-70
2021/09/13 11:45:06;;;;;;;0.10;0.10;;;;;;;25.53;38.00;98778.56;5059085;28;20195;-69
2021/09/13 11:47:35;;;;;;;0.10;0.10;;;;;;;25.29;38.85;98777.31;5076769;28;20526;-69
2021/09/13 11:50:03;;;;;;;0.10;0.10;;;;;;;25.25;38.59;98763.19;5084245;28;20573;-68
2021/09/13 11:52:30;;;;;;;0.20;0.20;;;;;;;25.00;39.43;98761.09;5056769;28;20047;-69
2021/09/13 11:55:08;;;;;;;0.20;0.20;;;;;;;24.52;40.23;98758.25;5074368;28;20060;-69